SVA345 OEJN-DAAG
Flight info
| Callsign | SVA345 |
|---|---|
| Flight time | 5h 23m |
| Altitude | 38000 |
| Route | BOMOX M686 OTEMO T55 KUNKI P751 METRU UP868 ARLOS DCT OMENI UL874 DIMAO UZ888 BABOR UA31 ALR |
| Aircraft | B772/H-SDE2E3FGHIJ5LORVWXY/LB1D1 |
Departure
| Time | 2026-05-07 15:26 |
|---|---|
| Airport | King Abdulaziz International Airport (OEJN) |
Arrival
| Time | 2026-05-07 20:49 |
|---|---|
| Airport | Houari Boumediene Airport (DAAG) |
| Time | Latitude | Longitude | Altitude | Speed | Heading |
|---|---|---|---|---|---|
| 2026-05-07 15:03 | 21.67505 | 39.17007 | 61 ft | 0 kts | 70° |
| 2026-05-07 15:13 | 21.67503 | 39.17003 | 61 ft | 2 kts | 70° |
| 2026-05-07 15:13 | 21.67498 | 39.16988 | 61 ft | 2 kts | 70° |
| 2026-05-07 15:14 | 21.67493 | 39.16972 | 61 ft | 2 kts | 70° |
| 2026-05-07 15:14 | 21.67489 | 39.16963 | 61 ft | 2 kts | 68° |
| 2026-05-07 15:14 | 21.67481 | 39.16949 | 61 ft | 2 kts | 39° |
| 2026-05-07 15:14 | 21.67469 | 39.16941 | 61 ft | 2 kts | 16° |
| 2026-05-07 15:15 | 21.67454 | 39.16939 | 61 ft | 2 kts | 353° |
| 2026-05-07 15:15 | 21.67445 | 39.16941 | 61 ft | 1 kts | 339° |
| 2026-05-07 15:15 | 21.67442 | 39.16942 | 61 ft | 0 kts | 339° |
| 2026-05-07 15:19 | 21.67446 | 39.16941 | 61 ft | 2 kts | 339° |
| 2026-05-07 15:20 | 21.67484 | 39.16925 | 61 ft | 8 kts | 339° |
| 2026-05-07 15:20 | 21.67559 | 39.16895 | 61 ft | 14 kts | 340° |
| 2026-05-07 15:20 | 21.67660 | 39.16855 | 61 ft | 16 kts | 339° |
| 2026-05-07 15:20 | 21.67703 | 39.16763 | 61 ft | 16 kts | 253° |
| 2026-05-07 15:21 | 21.67664 | 39.16640 | 61 ft | 17 kts | 250° |
| 2026-05-07 15:21 | 21.67616 | 39.16503 | 60 ft | 21 kts | 250° |
| 2026-05-07 15:21 | 21.67560 | 39.16341 | 60 ft | 24 kts | 250° |
| 2026-05-07 15:21 | 21.67511 | 39.16196 | 60 ft | 12 kts | 250° |
| 2026-05-07 15:22 | 21.67441 | 39.16163 | 60 ft | 13 kts | 161° |
| 2026-05-07 15:22 | 21.67335 | 39.16205 | 60 ft | 19 kts | 160° |
| 2026-05-07 15:22 | 21.67190 | 39.16262 | 60 ft | 23 kts | 159° |
| 2026-05-07 15:22 | 21.67040 | 39.16322 | 60 ft | 24 kts | 159° |
| 2026-05-07 15:23 | 21.66874 | 39.16388 | 60 ft | 24 kts | 160° |
| 2026-05-07 15:23 | 21.66708 | 39.16454 | 60 ft | 25 kts | 159° |
| 2026-05-07 15:23 | 21.66538 | 39.16519 | 60 ft | 25 kts | 159° |
| 2026-05-07 15:23 | 21.66373 | 39.16585 | 60 ft | 24 kts | 159° |
| 2026-05-07 15:24 | 21.66247 | 39.16635 | 60 ft | 13 kts | 160° |
| 2026-05-07 15:24 | 21.66175 | 39.16618 | 60 ft | 8 kts | 242° |
| 2026-05-07 15:24 | 21.66155 | 39.16564 | 60 ft | 10 kts | 249° |
| 2026-05-07 15:24 | 21.66139 | 39.16483 | 60 ft | 11 kts | 297° |
| 2026-05-07 15:25 | 21.66165 | 39.16467 | 60 ft | 4 kts | 341° |
| 2026-05-07 15:25 | 21.66276 | 39.16427 | 60 ft | 40 kts | 340° |
| 2026-05-07 15:25 | 21.66777 | 39.16229 | 60 ft | 110 kts | 339° |
| 2026-05-07 15:25 | 21.67693 | 39.15870 | 63 ft | 165 kts | 339° |
| 2026-05-07 15:26 | 21.68793 | 39.15432 | 615 ft | 168 kts | 338° |
| 2026-05-07 15:26 | 21.69931 | 39.14983 | 1264 ft | 178 kts | 340° |
| 2026-05-07 15:26 | 21.71125 | 39.14515 | 1654 ft | 191 kts | 340° |
| 2026-05-07 15:26 | 21.72454 | 39.13992 | 1934 ft | 211 kts | 340° |
| 2026-05-07 15:27 | 21.73910 | 39.13417 | 2251 ft | 231 kts | 340° |
| 2026-05-07 15:27 | 21.75505 | 39.12787 | 2587 ft | 250 kts | 340° |
| 2026-05-07 15:27 | 21.77169 | 39.12130 | 3197 ft | 255 kts | 339° |
| 2026-05-07 15:27 | 21.78867 | 39.11459 | 3820 ft | 261 kts | 339° |
| 2026-05-07 15:28 | 21.80611 | 39.10769 | 4354 ft | 270 kts | 339° |
| 2026-05-07 15:28 | 21.82356 | 39.10080 | 5012 ft | 272 kts | 339° |
| 2026-05-07 15:28 | 21.84183 | 39.09357 | 5565 ft | 280 kts | 339° |
| 2026-05-07 15:28 | 21.86035 | 39.08624 | 5932 ft | 286 kts | 339° |
| 2026-05-07 15:29 | 21.87918 | 39.07879 | 5988 ft | 286 kts | 339° |
| 2026-05-07 15:29 | 21.89821 | 39.07126 | 5986 ft | 285 kts | 339° |
| 2026-05-07 15:29 | 21.91674 | 39.06282 | 6002 ft | 285 kts | 334° |
| 2026-05-07 15:29 | 21.93461 | 39.05399 | 5996 ft | 284 kts | 334° |
| 2026-05-07 15:30 | 21.95287 | 39.04510 | 5984 ft | 283 kts | 334° |
| 2026-05-07 15:30 | 21.97094 | 39.03643 | 5991 ft | 285 kts | 335° |
| 2026-05-07 15:30 | 21.98929 | 39.02766 | 5984 ft | 284 kts | 335° |
| 2026-05-07 15:30 | 22.00748 | 39.01897 | 5965 ft | 284 kts | 335° |
| 2026-05-07 15:31 | 22.02615 | 39.01004 | 6294 ft | 294 kts | 335° |
| 2026-05-07 15:31 | 22.04471 | 39.00116 | 7137 ft | 288 kts | 335° |
| 2026-05-07 15:31 | 22.06315 | 38.99234 | 7809 ft | 289 kts | 334° |
| 2026-05-07 15:31 | 22.08147 | 38.98357 | 8424 ft | 292 kts | 334° |
| 2026-05-07 15:32 | 22.10041 | 38.97450 | 9082 ft | 293 kts | 334° |
| 2026-05-07 15:32 | 22.11873 | 38.96573 | 9690 ft | 295 kts | 334° |
| 2026-05-07 15:32 | 22.13762 | 38.95667 | 10208 ft | 302 kts | 334° |
| 2026-05-07 15:32 | 22.15741 | 38.94718 | 10468 ft | 319 kts | 334° |
| 2026-05-07 15:33 | 22.17797 | 38.93733 | 10720 ft | 335 kts | 334° |
| 2026-05-07 15:33 | 22.20053 | 38.92654 | 10999 ft | 352 kts | 334° |
| 2026-05-07 15:33 | 22.22348 | 38.91548 | 11260 ft | 367 kts | 332° |
| 2026-05-07 15:33 | 22.24593 | 38.90080 | 11499 ft | 379 kts | 321° |
| 2026-05-07 15:34 | 22.26564 | 38.88117 | 11808 ft | 388 kts | 309° |
| 2026-05-07 15:34 | 22.28127 | 38.85770 | 12323 ft | 390 kts | 298° |
| 2026-05-07 15:34 | 22.29515 | 38.83201 | 12959 ft | 392 kts | 297° |
| 2026-05-07 15:34 | 22.30874 | 38.80645 | 13605 ft | 395 kts | 297° |
| 2026-05-07 15:35 | 22.32254 | 38.78045 | 14275 ft | 397 kts | 297° |
| 2026-05-07 15:35 | 22.33644 | 38.75426 | 14934 ft | 401 kts | 296° |
| 2026-05-07 15:35 | 22.35024 | 38.72827 | 15622 ft | 403 kts | 296° |
| 2026-05-07 15:35 | 22.36425 | 38.70185 | 16289 ft | 406 kts | 296° |
| 2026-05-07 15:36 | 22.37855 | 38.67490 | 16975 ft | 409 kts | 296° |
| 2026-05-07 15:36 | 22.39269 | 38.64822 | 17655 ft | 411 kts | 296° |
| 2026-05-07 15:36 | 22.40701 | 38.62120 | 18304 ft | 413 kts | 296° |
| 2026-05-07 15:36 | 22.42126 | 38.59429 | 18892 ft | 417 kts | 296° |
| 2026-05-07 15:37 | 22.43595 | 38.56654 | 19519 ft | 420 kts | 296° |
| 2026-05-07 15:37 | 22.45044 | 38.53914 | 20132 ft | 422 kts | 296° |
| 2026-05-07 15:37 | 22.46513 | 38.51138 | 20765 ft | 424 kts | 296° |
| 2026-05-07 15:37 | 22.47986 | 38.48352 | 21374 ft | 427 kts | 297° |
| 2026-05-07 15:38 | 22.49687 | 38.45672 | 21905 ft | 435 kts | 306° |
| 2026-05-07 15:38 | 22.51801 | 38.43307 | 22423 ft | 443 kts | 315° |
| 2026-05-07 15:38 | 22.54201 | 38.41180 | 23003 ft | 447 kts | 317° |
| 2026-05-07 15:38 | 22.56667 | 38.39058 | 23556 ft | 450 kts | 317° |
| 2026-05-07 15:39 | 22.59139 | 38.36931 | 24062 ft | 454 kts | 317° |
| 2026-05-07 15:39 | 22.61623 | 38.34790 | 24591 ft | 457 kts | 316° |
| 2026-05-07 15:39 | 22.64051 | 38.32694 | 25126 ft | 459 kts | 316° |
| 2026-05-07 15:39 | 22.66560 | 38.30526 | 25675 ft | 461 kts | 316° |
| 2026-05-07 15:40 | 22.69077 | 38.28348 | 26154 ft | 464 kts | 316° |
| 2026-05-07 15:40 | 22.71650 | 38.26120 | 26634 ft | 468 kts | 316° |
| 2026-05-07 15:40 | 22.74198 | 38.23912 | 27069 ft | 471 kts | 315° |
| 2026-05-07 15:40 | 22.76785 | 38.21669 | 27482 ft | 475 kts | 315° |
| 2026-05-07 15:41 | 22.79408 | 38.19393 | 27926 ft | 478 kts | 315° |
| 2026-05-07 15:41 | 22.82019 | 38.17127 | 28410 ft | 480 kts | 315° |
| 2026-05-07 15:41 | 22.84638 | 38.14853 | 28875 ft | 482 kts | 315° |
| 2026-05-07 15:41 | 22.87227 | 38.12603 | 29287 ft | 484 kts | 315° |
| 2026-05-07 15:42 | 22.89897 | 38.10281 | 29641 ft | 488 kts | 315° |
| 2026-05-07 15:42 | 22.92559 | 38.07965 | 30050 ft | 491 kts | 315° |
| 2026-05-07 15:42 | 22.95228 | 38.05643 | 30537 ft | 491 kts | 315° |
| 2026-05-07 15:42 | 22.97891 | 38.03325 | 30997 ft | 492 kts | 314° |
| 2026-05-07 15:43 | 23.00569 | 38.00993 | 31454 ft | 492 kts | 314° |
| 2026-05-07 15:43 | 23.03242 | 37.98663 | 31950 ft | 491 kts | 314° |
| 2026-05-07 15:43 | 23.05970 | 37.96284 | 32460 ft | 490 kts | 314° |
| 2026-05-07 15:43 | 23.08651 | 37.93946 | 32980 ft | 489 kts | 314° |
| 2026-05-07 15:44 | 23.11221 | 37.91701 | 33421 ft | 489 kts | 313° |
| 2026-05-07 15:44 | 23.13840 | 37.89413 | 33808 ft | 489 kts | 313° |
| 2026-05-07 15:44 | 23.16512 | 37.87078 | 34253 ft | 489 kts | 313° |
| 2026-05-07 15:44 | 23.19168 | 37.84757 | 34754 ft | 486 kts | 313° |
| 2026-05-07 15:45 | 23.21807 | 37.82449 | 35293 ft | 483 kts | 312° |
| 2026-05-07 15:45 | 23.24430 | 37.80154 | 35765 ft | 480 kts | 312° |
| 2026-05-07 15:45 | 23.27022 | 37.77883 | 36100 ft | 480 kts | 312° |
| 2026-05-07 15:45 | 23.29634 | 37.75593 | 36423 ft | 480 kts | 312° |
| 2026-05-07 15:46 | 23.34848 | 37.71021 | 37079 ft | 478 kts | 311° |
| 2026-05-07 15:46 | 23.37460 | 37.68726 | 37362 ft | 478 kts | 311° |
| 2026-05-07 15:46 | 23.40057 | 37.66442 | 37586 ft | 478 kts | 311° |
| 2026-05-07 15:47 | 23.42603 | 37.64201 | 37725 ft | 480 kts | 311° |
| 2026-05-07 15:47 | 23.47763 | 37.59660 | 37812 ft | 480 kts | 311° |
| 2026-05-07 15:48 | 23.52970 | 37.55074 | 37807 ft | 478 kts | 311° |
| 2026-05-07 15:48 | 23.58175 | 37.50483 | 37812 ft | 479 kts | 311° |
| 2026-05-07 15:49 | 23.63369 | 37.45899 | 37820 ft | 477 kts | 311° |
| 2026-05-07 15:49 | 23.68542 | 37.41327 | 37809 ft | 475 kts | 311° |
| 2026-05-07 15:50 | 23.73708 | 37.36756 | 37818 ft | 476 kts | 311° |
| 2026-05-07 15:50 | 23.78798 | 37.32249 | 37840 ft | 474 kts | 310° |
| 2026-05-07 15:51 | 23.83944 | 37.27687 | 37852 ft | 474 kts | 311° |
| 2026-05-07 15:51 | 23.89076 | 37.23132 | 37845 ft | 473 kts | 311° |
| 2026-05-07 15:52 | 23.94222 | 37.18560 | 37849 ft | 474 kts | 311° |
| 2026-05-07 15:52 | 23.99340 | 37.14009 | 37844 ft | 472 kts | 311° |
| 2026-05-07 15:53 | 24.04501 | 37.09413 | 37849 ft | 473 kts | 311° |
| 2026-05-07 15:53 | 24.09615 | 37.04854 | 37856 ft | 475 kts | 311° |
| 2026-05-07 15:54 | 24.14606 | 37.00402 | 37843 ft | 474 kts | 311° |
| 2026-05-07 15:54 | 24.19762 | 36.95797 | 37842 ft | 474 kts | 311° |
| 2026-05-07 15:55 | 24.24880 | 36.91222 | 37842 ft | 474 kts | 311° |
| 2026-05-07 15:55 | 24.30011 | 36.86630 | 37842 ft | 474 kts | 311° |
| 2026-05-07 15:56 | 24.35127 | 36.82046 | 37842 ft | 474 kts | 311° |
| 2026-05-07 15:56 | 24.40282 | 36.77420 | 37838 ft | 477 kts | 312° |
| 2026-05-07 15:57 | 24.45429 | 36.72799 | 37843 ft | 477 kts | 312° |
| 2026-05-07 15:57 | 24.50582 | 36.68167 | 37840 ft | 476 kts | 312° |
| 2026-05-07 15:58 | 24.55767 | 36.63502 | 37844 ft | 477 kts | 312° |
| 2026-05-07 15:58 | 24.60450 | 36.58510 | 37838 ft | 463 kts | 300° |
| 2026-05-07 15:59 | 24.63599 | 36.52480 | 37839 ft | 446 kts | 284° |
| 2026-05-07 15:59 | 24.65679 | 36.46029 | 37845 ft | 444 kts | 282° |
| 2026-05-07 16:00 | 24.67695 | 36.39598 | 37834 ft | 443 kts | 282° |
| 2026-05-07 16:00 | 24.69656 | 36.33297 | 37856 ft | 445 kts | 282° |
| 2026-05-07 16:01 | 24.71636 | 36.26921 | 37852 ft | 441 kts | 283° |
| 2026-05-07 16:01 | 24.73633 | 36.20462 | 37854 ft | 442 kts | 282° |
| 2026-05-07 16:02 | 24.75615 | 36.14033 | 37865 ft | 445 kts | 283° |
| 2026-05-07 16:02 | 24.77613 | 36.07544 | 37871 ft | 445 kts | 283° |
| 2026-05-07 16:03 | 24.79599 | 36.01082 | 37862 ft | 445 kts | 283° |
| 2026-05-07 16:03 | 24.81584 | 35.94610 | 37867 ft | 444 kts | 283° |
| 2026-05-07 16:04 | 24.83563 | 35.88149 | 37871 ft | 444 kts | 283° |
| 2026-05-07 16:04 | 24.85543 | 35.81671 | 37870 ft | 445 kts | 283° |
| 2026-05-07 16:05 | 24.87487 | 35.75298 | 37871 ft | 446 kts | 283° |
| 2026-05-07 16:05 | 24.89457 | 35.68830 | 37873 ft | 445 kts | 284° |
| 2026-05-07 16:06 | 24.91386 | 35.62489 | 37872 ft | 444 kts | 284° |
| 2026-05-07 16:06 | 24.93315 | 35.56131 | 37868 ft | 445 kts | 284° |
| 2026-05-07 16:07 | 24.95280 | 35.49649 | 37871 ft | 447 kts | 284° |
| 2026-05-07 16:07 | 24.97236 | 35.43183 | 37876 ft | 445 kts | 285° |
| 2026-05-07 16:08 | 24.99203 | 35.36670 | 37873 ft | 446 kts | 285° |
| 2026-05-07 16:08 | 25.01136 | 35.30259 | 37881 ft | 447 kts | 284° |
| 2026-05-07 16:09 | 25.03062 | 35.23859 | 37879 ft | 445 kts | 285° |
| 2026-05-07 16:09 | 25.05012 | 35.17435 | 37880 ft | 448 kts | 288° |
| 2026-05-07 16:10 | 25.08196 | 35.11472 | 37888 ft | 458 kts | 306° |
| 2026-05-07 16:10 | 25.12025 | 35.07164 | 37878 ft | 462 kts | 311° |
| 2026-05-07 16:11 | 25.17133 | 35.01651 | 37882 ft | 461 kts | 311° |
| 2026-05-07 16:11 | 25.21649 | 34.96756 | 37874 ft | 462 kts | 311° |
| 2026-05-07 16:12 | 25.26245 | 34.91762 | 37869 ft | 461 kts | 311° |
| 2026-05-07 16:12 | 25.30822 | 34.86780 | 37872 ft | 459 kts | 311° |
| 2026-05-07 16:13 | 25.35362 | 34.81831 | 37874 ft | 459 kts | 311° |
| 2026-05-07 16:13 | 25.39927 | 34.76846 | 37877 ft | 459 kts | 311° |
| 2026-05-07 16:14 | 25.44353 | 34.72009 | 37878 ft | 459 kts | 311° |
| 2026-05-07 16:14 | 25.48898 | 34.67036 | 37887 ft | 457 kts | 311° |
| 2026-05-07 16:15 | 25.53437 | 34.62063 | 37893 ft | 456 kts | 311° |
| 2026-05-07 16:15 | 25.57169 | 34.57969 | 37900 ft | 456 kts | 312° |
| 2026-05-07 16:16 | 25.62209 | 34.51843 | 37901 ft | 454 kts | 307° |
| 2026-05-07 16:16 | 25.66276 | 34.46472 | 37901 ft | 451 kts | 307° |
| 2026-05-07 16:17 | 25.70340 | 34.41140 | 37905 ft | 451 kts | 308° |
| 2026-05-07 16:17 | 25.74310 | 34.35950 | 37915 ft | 449 kts | 308° |
| 2026-05-07 16:18 | 25.76758 | 34.32751 | 37928 ft | 452 kts | 308° |
| 2026-05-07 16:18 | 25.81839 | 34.26115 | 37933 ft | 450 kts | 308° |
| 2026-05-07 16:19 | 25.85906 | 34.20800 | 37941 ft | 450 kts | 308° |
| 2026-05-07 16:19 | 25.90021 | 34.15418 | 37942 ft | 450 kts | 308° |
| 2026-05-07 16:20 | 25.94086 | 34.10096 | 37939 ft | 449 kts | 308° |
| 2026-05-07 16:20 | 25.98149 | 34.04773 | 37944 ft | 450 kts | 309° |
| 2026-05-07 16:21 | 26.02189 | 33.99474 | 37952 ft | 449 kts | 309° |
| 2026-05-07 16:21 | 26.06262 | 33.94126 | 37945 ft | 448 kts | 309° |
| 2026-05-07 16:22 | 26.10243 | 33.88892 | 37956 ft | 449 kts | 309° |
| 2026-05-07 16:22 | 26.14083 | 33.83836 | 37958 ft | 446 kts | 308° |
| 2026-05-07 16:23 | 26.18108 | 33.78532 | 37968 ft | 447 kts | 309° |
| 2026-05-07 16:23 | 26.22087 | 33.73284 | 37972 ft | 442 kts | 308° |
| 2026-05-07 16:24 | 26.25954 | 33.68176 | 37975 ft | 443 kts | 309° |
| 2026-05-07 16:24 | 26.29999 | 33.62827 | 37989 ft | 443 kts | 309° |
| 2026-05-07 16:25 | 26.33931 | 33.57621 | 37986 ft | 440 kts | 309° |
| 2026-05-07 16:25 | 26.37864 | 33.52410 | 37991 ft | 441 kts | 309° |
| 2026-05-07 16:26 | 26.41753 | 33.47249 | 37986 ft | 438 kts | 309° |
| 2026-05-07 16:26 | 26.45697 | 33.42009 | 37977 ft | 440 kts | 309° |
| 2026-05-07 16:27 | 26.49525 | 33.36920 | 37977 ft | 438 kts | 309° |
| 2026-05-07 16:27 | 26.52480 | 33.32986 | 37983 ft | 435 kts | 309° |
| 2026-05-07 16:28 | 26.57117 | 33.26807 | 37983 ft | 435 kts | 309° |
| 2026-05-07 16:28 | 26.60969 | 33.21667 | 37975 ft | 434 kts | 309° |
| 2026-05-07 16:29 | 26.64813 | 33.16534 | 37979 ft | 434 kts | 308° |
| 2026-05-07 16:29 | 26.68664 | 33.11384 | 37998 ft | 432 kts | 308° |
| 2026-05-07 16:30 | 26.72488 | 33.06263 | 37994 ft | 432 kts | 309° |
| 2026-05-07 16:30 | 26.76332 | 33.01111 | 37972 ft | 428 kts | 309° |
| 2026-05-07 16:31 | 26.80196 | 32.95924 | 37979 ft | 431 kts | 309° |
| 2026-05-07 16:31 | 26.84049 | 32.90749 | 37979 ft | 427 kts | 309° |
| 2026-05-07 16:32 | 26.87867 | 32.85612 | 37982 ft | 429 kts | 309° |
| 2026-05-07 16:32 | 26.91697 | 32.80455 | 37972 ft | 428 kts | 309° |
| 2026-05-07 16:33 | 26.95503 | 32.75323 | 37965 ft | 427 kts | 309° |
| 2026-05-07 16:33 | 26.99336 | 32.70149 | 37975 ft | 426 kts | 309° |
| 2026-05-07 16:34 | 27.03155 | 32.64989 | 37973 ft | 427 kts | 309° |
| 2026-05-07 16:34 | 27.06956 | 32.59846 | 37987 ft | 425 kts | 309° |
| 2026-05-07 16:35 | 27.10713 | 32.54758 | 38084 ft | 427 kts | 309° |
| 2026-05-07 16:35 | 27.14413 | 32.49739 | 38022 ft | 425 kts | 309° |
| 2026-05-07 16:36 | 27.18207 | 32.44588 | 38016 ft | 425 kts | 310° |
| 2026-05-07 16:36 | 27.21904 | 32.39563 | 38017 ft | 426 kts | 309° |
| 2026-05-07 16:37 | 27.25412 | 32.34789 | 38025 ft | 424 kts | 309° |
| 2026-05-07 16:37 | 27.29012 | 32.29884 | 38041 ft | 424 kts | 310° |
| 2026-05-07 16:38 | 27.33004 | 32.24224 | 38042 ft | 424 kts | 308° |
| 2026-05-07 16:38 | 27.36460 | 32.19156 | 38039 ft | 423 kts | 308° |
| 2026-05-07 16:39 | 27.40017 | 32.13948 | 38042 ft | 423 kts | 308° |
| 2026-05-07 16:39 | 27.43589 | 32.08721 | 38026 ft | 422 kts | 308° |
| 2026-05-07 16:40 | 27.47179 | 32.03464 | 38031 ft | 423 kts | 309° |
| 2026-05-07 16:40 | 27.50761 | 31.98215 | 38029 ft | 420 kts | 308° |
| 2026-05-07 16:41 | 27.54336 | 31.92971 | 38028 ft | 423 kts | 308° |
| 2026-05-07 16:41 | 27.57940 | 31.87677 | 38022 ft | 419 kts | 309° |
| 2026-05-07 16:42 | 27.61500 | 31.82444 | 38037 ft | 422 kts | 309° |
| 2026-05-07 16:42 | 27.65082 | 31.77170 | 38021 ft | 420 kts | 309° |
| 2026-05-07 16:43 | 27.68640 | 31.71928 | 38021 ft | 421 kts | 309° |
| 2026-05-07 16:43 | 27.72192 | 31.66686 | 38021 ft | 420 kts | 309° |
| 2026-05-07 16:44 | 27.75761 | 31.61413 | 38028 ft | 419 kts | 309° |
| 2026-05-07 16:44 | 27.79298 | 31.56181 | 38019 ft | 419 kts | 309° |
| 2026-05-07 16:45 | 27.82828 | 31.50954 | 38010 ft | 418 kts | 309° |
| 2026-05-07 16:45 | 27.86344 | 31.45740 | 38006 ft | 418 kts | 310° |
| 2026-05-07 16:46 | 27.89875 | 31.40498 | 37993 ft | 418 kts | 310° |
| 2026-05-07 16:46 | 27.93421 | 31.35227 | 37996 ft | 418 kts | 310° |
| 2026-05-07 16:47 | 27.96871 | 31.30093 | 38011 ft | 417 kts | 310° |
| 2026-05-07 16:47 | 28.00383 | 31.24860 | 37987 ft | 413 kts | 309° |
| 2026-05-07 16:48 | 28.03866 | 31.19665 | 37991 ft | 415 kts | 310° |
| 2026-05-07 16:48 | 28.07384 | 31.14411 | 37992 ft | 415 kts | 310° |
| 2026-05-07 16:49 | 28.10596 | 31.09038 | 38008 ft | 414 kts | 307° |
| 2026-05-07 16:49 | 28.13683 | 31.03755 | 38002 ft | 415 kts | 307° |
| 2026-05-07 16:50 | 28.16907 | 30.98259 | 38005 ft | 414 kts | 308° |
| 2026-05-07 16:50 | 28.20096 | 30.92830 | 37995 ft | 413 kts | 307° |
| 2026-05-07 16:51 | 28.23306 | 30.87368 | 37997 ft | 416 kts | 307° |
| 2026-05-07 16:51 | 28.26523 | 30.81888 | 37990 ft | 413 kts | 308° |
| 2026-05-07 16:52 | 28.29721 | 30.76436 | 37994 ft | 414 kts | 308° |
| 2026-05-07 16:52 | 28.32931 | 30.70956 | 37992 ft | 414 kts | 308° |
| 2026-05-07 16:53 | 28.36125 | 30.65498 | 37993 ft | 415 kts | 308° |
| 2026-05-07 16:53 | 28.39332 | 30.60009 | 38003 ft | 415 kts | 308° |
| 2026-05-07 16:54 | 28.42517 | 30.54553 | 38003 ft | 414 kts | 308° |
| 2026-05-07 16:54 | 28.45700 | 30.49091 | 38014 ft | 414 kts | 308° |
| 2026-05-07 16:55 | 28.48886 | 30.43619 | 38012 ft | 414 kts | 308° |
| 2026-05-07 16:55 | 28.52092 | 30.38106 | 38024 ft | 415 kts | 308° |
| 2026-05-07 16:56 | 28.55238 | 30.32688 | 38032 ft | 416 kts | 308° |
| 2026-05-07 16:56 | 28.60006 | 30.24462 | 38030 ft | 414 kts | 308° |
| 2026-05-07 16:57 | 28.63178 | 30.18982 | 38033 ft | 414 kts | 308° |
| 2026-05-07 16:57 | 28.66370 | 30.13461 | 38039 ft | 415 kts | 307° |
| 2026-05-07 16:58 | 28.69553 | 30.07946 | 38039 ft | 414 kts | 308° |
| 2026-05-07 16:58 | 28.72641 | 30.02591 | 38030 ft | 415 kts | 308° |
| 2026-05-07 16:59 | 28.75766 | 29.97162 | 38029 ft | 413 kts | 308° |
| 2026-05-07 16:59 | 28.78609 | 29.92219 | 38031 ft | 416 kts | 308° |
| 2026-05-07 17:00 | 28.81929 | 29.86437 | 38032 ft | 413 kts | 308° |
| 2026-05-07 17:00 | 28.85088 | 29.80931 | 38029 ft | 413 kts | 308° |
| 2026-05-07 17:01 | 28.88205 | 29.75489 | 38026 ft | 411 kts | 308° |
| 2026-05-07 17:01 | 28.91315 | 29.70055 | 38038 ft | 413 kts | 307° |
| 2026-05-07 17:02 | 28.94462 | 29.64543 | 38029 ft | 408 kts | 308° |
| 2026-05-07 17:02 | 28.97571 | 29.59098 | 38033 ft | 411 kts | 308° |
| 2026-05-07 17:03 | 29.00687 | 29.53628 | 38026 ft | 410 kts | 308° |
| 2026-05-07 17:03 | 29.03802 | 29.48153 | 38044 ft | 408 kts | 308° |
| 2026-05-07 17:04 | 29.06889 | 29.42722 | 38031 ft | 410 kts | 308° |
| 2026-05-07 17:04 | 29.10004 | 29.37235 | 38041 ft | 409 kts | 308° |
| 2026-05-07 17:05 | 29.13264 | 29.32401 | 38069 ft | 404 kts | 319° |
| 2026-05-07 17:05 | 29.16474 | 29.29448 | 38071 ft | 402 kts | 325° |
| 2026-05-07 17:06 | 29.21392 | 29.25214 | 38073 ft | 398 kts | 324° |
| 2026-05-07 17:06 | 29.25842 | 29.21369 | 38072 ft | 398 kts | 324° |
| 2026-05-07 17:07 | 29.30253 | 29.17546 | 38079 ft | 397 kts | 324° |
| 2026-05-07 17:07 | 29.34688 | 29.13697 | 38082 ft | 396 kts | 324° |
| 2026-05-07 17:08 | 29.39080 | 29.09878 | 38080 ft | 398 kts | 324° |
| 2026-05-07 17:08 | 29.43516 | 29.06014 | 38083 ft | 396 kts | 324° |
| 2026-05-07 17:09 | 29.47921 | 29.02163 | 38071 ft | 395 kts | 324° |
| 2026-05-07 17:09 | 29.52308 | 28.98325 | 38084 ft | 396 kts | 324° |
| 2026-05-07 17:10 | 29.56704 | 28.94474 | 38086 ft | 395 kts | 324° |
| 2026-05-07 17:10 | 29.61101 | 28.90617 | 38086 ft | 396 kts | 324° |
| 2026-05-07 17:11 | 29.65498 | 28.86756 | 38087 ft | 395 kts | 324° |
| 2026-05-07 17:11 | 29.69868 | 28.82915 | 38083 ft | 393 kts | 324° |
| 2026-05-07 17:12 | 29.74223 | 28.79083 | 38075 ft | 394 kts | 324° |
| 2026-05-07 17:12 | 29.78606 | 28.75222 | 38072 ft | 394 kts | 324° |
| 2026-05-07 17:13 | 29.82975 | 28.71369 | 38071 ft | 394 kts | 324° |
| 2026-05-07 17:13 | 29.87376 | 28.67483 | 38071 ft | 394 kts | 324° |
| 2026-05-07 17:14 | 29.91745 | 28.63621 | 38079 ft | 394 kts | 324° |
| 2026-05-07 17:14 | 29.96106 | 28.59761 | 38073 ft | 392 kts | 324° |
| 2026-05-07 17:15 | 30.00446 | 28.55916 | 38073 ft | 394 kts | 324° |
| 2026-05-07 17:15 | 30.04807 | 28.52048 | 38072 ft | 392 kts | 324° |
| 2026-05-07 17:16 | 30.09129 | 28.48210 | 38073 ft | 392 kts | 324° |
| 2026-05-07 17:16 | 30.13412 | 28.44402 | 38099 ft | 391 kts | 324° |
| 2026-05-07 17:17 | 30.17732 | 28.40558 | 38101 ft | 390 kts | 324° |
| 2026-05-07 17:17 | 30.22073 | 28.36689 | 38094 ft | 390 kts | 324° |
| 2026-05-07 17:18 | 30.26327 | 28.32895 | 38114 ft | 392 kts | 324° |
| 2026-05-07 17:18 | 30.30663 | 28.29022 | 38111 ft | 390 kts | 324° |
| 2026-05-07 17:19 | 30.34967 | 28.25175 | 38121 ft | 389 kts | 323° |
| 2026-05-07 17:19 | 30.39251 | 28.21340 | 38116 ft | 389 kts | 323° |
| 2026-05-07 17:20 | 30.43570 | 28.17471 | 38120 ft | 390 kts | 323° |
| 2026-05-07 17:20 | 30.47852 | 28.13629 | 38130 ft | 388 kts | 323° |
| 2026-05-07 17:21 | 30.52126 | 28.09790 | 38129 ft | 387 kts | 323° |
| 2026-05-07 17:21 | 30.56407 | 28.05941 | 38124 ft | 387 kts | 324° |
| 2026-05-07 17:22 | 30.60651 | 28.02121 | 38127 ft | 386 kts | 323° |
| 2026-05-07 17:22 | 30.64901 | 27.98290 | 38126 ft | 384 kts | 323° |
| 2026-05-07 17:23 | 30.69170 | 27.94439 | 38130 ft | 387 kts | 324° |
| 2026-05-07 17:23 | 30.73412 | 27.90606 | 38129 ft | 383 kts | 323° |
| 2026-05-07 17:24 | 30.77650 | 27.86775 | 38131 ft | 387 kts | 324° |
| 2026-05-07 17:24 | 30.81900 | 27.82926 | 38130 ft | 383 kts | 324° |
| 2026-05-07 17:25 | 30.86130 | 27.79093 | 38128 ft | 386 kts | 323° |
| 2026-05-07 17:25 | 30.90369 | 27.75245 | 38126 ft | 383 kts | 323° |
| 2026-05-07 17:26 | 30.94590 | 27.71410 | 38127 ft | 384 kts | 324° |
| 2026-05-07 17:26 | 30.98782 | 27.67597 | 38128 ft | 382 kts | 324° |
| 2026-05-07 17:27 | 31.03013 | 27.63745 | 38124 ft | 385 kts | 324° |
| 2026-05-07 17:27 | 31.07213 | 27.59916 | 38125 ft | 383 kts | 323° |
| 2026-05-07 17:28 | 31.11457 | 27.56041 | 38147 ft | 384 kts | 322° |
| 2026-05-07 17:28 | 31.15034 | 27.51393 | 38153 ft | 389 kts | 309° |
| 2026-05-07 17:29 | 31.18113 | 27.46137 | 38144 ft | 392 kts | 308° |
| 2026-05-07 17:29 | 31.21193 | 27.40843 | 38142 ft | 392 kts | 308° |
| 2026-05-07 17:30 | 31.24275 | 27.35534 | 38141 ft | 392 kts | 308° |
| 2026-05-07 17:30 | 31.27290 | 27.30330 | 38151 ft | 392 kts | 308° |
| 2026-05-07 17:31 | 31.30382 | 27.24996 | 38153 ft | 393 kts | 309° |
| 2026-05-07 17:31 | 31.34230 | 27.20569 | 38150 ft | 388 kts | 326° |
| 2026-05-07 17:32 | 31.38760 | 27.17154 | 38153 ft | 387 kts | 327° |
| 2026-05-07 17:32 | 31.43317 | 27.13753 | 38147 ft | 385 kts | 327° |
| 2026-05-07 17:33 | 31.47892 | 27.10331 | 38141 ft | 389 kts | 327° |
| 2026-05-07 17:33 | 31.52444 | 27.06921 | 38142 ft | 389 kts | 327° |
| 2026-05-07 17:34 | 31.57003 | 27.03501 | 38138 ft | 387 kts | 327° |
| 2026-05-07 17:34 | 31.61573 | 27.00069 | 38134 ft | 390 kts | 327° |
| 2026-05-07 17:35 | 31.66154 | 26.96623 | 38133 ft | 388 kts | 327° |
| 2026-05-07 17:35 | 31.70719 | 26.93186 | 38132 ft | 389 kts | 327° |
| 2026-05-07 17:36 | 31.75304 | 26.89730 | 38129 ft | 391 kts | 327° |
| 2026-05-07 17:36 | 31.79883 | 26.86273 | 38129 ft | 389 kts | 327° |
| 2026-05-07 17:37 | 31.84471 | 26.82806 | 38125 ft | 390 kts | 327° |
| 2026-05-07 17:37 | 31.89050 | 26.79342 | 38128 ft | 391 kts | 327° |
| 2026-05-07 17:38 | 31.93634 | 26.75869 | 38123 ft | 389 kts | 327° |
| 2026-05-07 17:38 | 31.98202 | 26.72405 | 38123 ft | 391 kts | 327° |
| 2026-05-07 17:39 | 32.02778 | 26.68930 | 38123 ft | 390 kts | 327° |
| 2026-05-07 17:39 | 32.07383 | 26.65430 | 38120 ft | 389 kts | 327° |
| 2026-05-07 17:40 | 32.11945 | 26.61957 | 38146 ft | 390 kts | 327° |
| 2026-05-07 17:40 | 32.16537 | 26.58457 | 38143 ft | 390 kts | 327° |
| 2026-05-07 17:41 | 32.21113 | 26.54966 | 38141 ft | 391 kts | 327° |
| 2026-05-07 17:41 | 32.25678 | 26.51478 | 38141 ft | 390 kts | 326° |
| 2026-05-07 17:42 | 32.30244 | 26.47986 | 38140 ft | 391 kts | 327° |
| 2026-05-07 17:42 | 32.34812 | 26.44487 | 38139 ft | 390 kts | 327° |
| 2026-05-07 17:43 | 32.39389 | 26.40979 | 38138 ft | 390 kts | 326° |
| 2026-05-07 17:43 | 32.43952 | 26.37475 | 38138 ft | 392 kts | 326° |
| 2026-05-07 17:44 | 32.48558 | 26.33935 | 38150 ft | 391 kts | 326° |
| 2026-05-07 17:44 | 32.53097 | 26.30442 | 38152 ft | 389 kts | 326° |
| 2026-05-07 17:45 | 32.57674 | 26.26916 | 38148 ft | 391 kts | 326° |
| 2026-05-07 17:45 | 32.62243 | 26.23390 | 38150 ft | 390 kts | 326° |
| 2026-05-07 17:46 | 32.66791 | 26.19878 | 38148 ft | 390 kts | 326° |
| 2026-05-07 17:46 | 32.71375 | 26.16332 | 38147 ft | 392 kts | 326° |
| 2026-05-07 17:47 | 32.75948 | 26.12791 | 38148 ft | 391 kts | 326° |
| 2026-05-07 17:47 | 32.80505 | 26.09258 | 38146 ft | 391 kts | 325° |
| 2026-05-07 17:48 | 32.85058 | 26.05724 | 38149 ft | 391 kts | 325° |
| 2026-05-07 17:48 | 32.89656 | 26.02150 | 38147 ft | 393 kts | 326° |
| 2026-05-07 17:49 | 32.94236 | 25.98586 | 38143 ft | 391 kts | 325° |
| 2026-05-07 17:49 | 32.98816 | 25.95017 | 38144 ft | 393 kts | 325° |
| 2026-05-07 17:50 | 33.03392 | 25.91447 | 38147 ft | 391 kts | 326° |
| 2026-05-07 17:50 | 33.07973 | 25.87868 | 38141 ft | 394 kts | 325° |
| 2026-05-07 17:51 | 33.12536 | 25.84299 | 38159 ft | 393 kts | 325° |
| 2026-05-07 17:51 | 33.17123 | 25.80707 | 38161 ft | 393 kts | 326° |
| 2026-05-07 17:52 | 33.21735 | 25.77091 | 38155 ft | 394 kts | 325° |
| 2026-05-07 17:52 | 33.26307 | 25.73501 | 38157 ft | 393 kts | 325° |
| 2026-05-07 17:53 | 33.30897 | 25.69892 | 38154 ft | 394 kts | 325° |
| 2026-05-07 17:53 | 33.35463 | 25.66299 | 38151 ft | 392 kts | 325° |
| 2026-05-07 17:54 | 33.40066 | 25.62670 | 38147 ft | 394 kts | 326° |
| 2026-05-07 17:54 | 33.44684 | 25.59026 | 38143 ft | 396 kts | 325° |
| 2026-05-07 17:55 | 33.49291 | 25.55386 | 38139 ft | 396 kts | 326° |
| 2026-05-07 17:55 | 33.53884 | 25.51752 | 38141 ft | 395 kts | 325° |
| 2026-05-07 17:56 | 33.58506 | 25.48090 | 38136 ft | 395 kts | 326° |
| 2026-05-07 17:56 | 33.63118 | 25.44431 | 38137 ft | 397 kts | 325° |
| 2026-05-07 17:57 | 33.66987 | 25.41358 | 38134 ft | 395 kts | 325° |
| 2026-05-07 17:57 | 33.72360 | 25.37085 | 38129 ft | 398 kts | 325° |
| 2026-05-07 17:58 | 33.76958 | 25.33423 | 38141 ft | 395 kts | 325° |
| 2026-05-07 17:58 | 33.81563 | 25.29751 | 38139 ft | 397 kts | 325° |
| 2026-05-07 17:59 | 33.86194 | 25.26053 | 38137 ft | 398 kts | 325° |
| 2026-05-07 17:59 | 33.90830 | 25.22346 | 38133 ft | 397 kts | 325° |
| 2026-05-07 18:00 | 33.95452 | 25.18645 | 38129 ft | 396 kts | 325° |
| 2026-05-07 18:00 | 33.99449 | 25.14097 | 38129 ft | 399 kts | 308° |
| 2026-05-07 18:01 | 34.01988 | 25.08120 | 38132 ft | 405 kts | 295° |
| 2026-05-07 18:01 | 34.03961 | 25.01721 | 38125 ft | 407 kts | 294° |
| 2026-05-07 18:02 | 34.06875 | 24.92087 | 38127 ft | 408 kts | 294° |
| 2026-05-07 18:03 | 34.08797 | 24.85680 | 38124 ft | 405 kts | 294° |
| 2026-05-07 18:03 | 34.10597 | 24.79662 | 38152 ft | 408 kts | 294° |
| 2026-05-07 18:04 | 34.12582 | 24.73001 | 38154 ft | 407 kts | 294° |
| 2026-05-07 18:04 | 34.14509 | 24.66517 | 38152 ft | 405 kts | 294° |
| 2026-05-07 18:05 | 34.16412 | 24.60102 | 38150 ft | 408 kts | 294° |
| 2026-05-07 18:05 | 34.18310 | 24.53683 | 38146 ft | 404 kts | 294° |
| 2026-05-07 18:06 | 34.20207 | 24.47259 | 38145 ft | 406 kts | 294° |
| 2026-05-07 18:06 | 34.22109 | 24.40805 | 38141 ft | 407 kts | 294° |
| 2026-05-07 18:07 | 34.24002 | 24.34360 | 38141 ft | 405 kts | 294° |
| 2026-05-07 18:07 | 34.25900 | 24.27890 | 38140 ft | 409 kts | 293° |
| 2026-05-07 18:08 | 34.27801 | 24.21389 | 38122 ft | 406 kts | 293° |
| 2026-05-07 18:08 | 34.29683 | 24.14942 | 38127 ft | 409 kts | 294° |
| 2026-05-07 18:09 | 34.31566 | 24.08476 | 38127 ft | 406 kts | 294° |
| 2026-05-07 18:09 | 34.33434 | 24.02046 | 38121 ft | 405 kts | 293° |
| 2026-05-07 18:10 | 34.35312 | 23.95569 | 38121 ft | 406 kts | 293° |
| 2026-05-07 18:10 | 34.37184 | 23.89100 | 38107 ft | 408 kts | 293° |
| 2026-05-07 18:11 | 34.39053 | 23.82622 | 38115 ft | 406 kts | 293° |
| 2026-05-07 18:11 | 34.40918 | 23.76148 | 38106 ft | 408 kts | 292° |
| 2026-05-07 18:12 | 34.42790 | 23.69631 | 38106 ft | 409 kts | 293° |
| 2026-05-07 18:12 | 34.44651 | 23.63138 | 38100 ft | 408 kts | 293° |
| 2026-05-07 18:13 | 34.46518 | 23.56612 | 38094 ft | 411 kts | 293° |
| 2026-05-07 18:13 | 34.48391 | 23.50048 | 38100 ft | 410 kts | 292° |
| 2026-05-07 18:14 | 34.50252 | 23.43510 | 38094 ft | 410 kts | 292° |
| 2026-05-07 18:14 | 34.52110 | 23.36970 | 38089 ft | 413 kts | 292° |
| 2026-05-07 18:15 | 34.53978 | 23.30374 | 38093 ft | 414 kts | 292° |
| 2026-05-07 18:15 | 34.55839 | 23.23788 | 38098 ft | 411 kts | 292° |
| 2026-05-07 18:16 | 34.57715 | 23.17140 | 38090 ft | 415 kts | 291° |
| 2026-05-07 18:16 | 34.59579 | 23.10514 | 38091 ft | 414 kts | 291° |
| 2026-05-07 18:17 | 34.61438 | 23.03889 | 38087 ft | 414 kts | 291° |
| 2026-05-07 18:17 | 34.63017 | 22.97132 | 38089 ft | 419 kts | 285° |
| 2026-05-07 18:18 | 34.64218 | 22.90205 | 38089 ft | 417 kts | 285° |
| 2026-05-07 18:18 | 34.65409 | 22.83282 | 38090 ft | 418 kts | 285° |
| 2026-05-07 18:19 | 34.66591 | 22.76389 | 38085 ft | 416 kts | 285° |
| 2026-05-07 18:19 | 34.67770 | 22.69485 | 38084 ft | 416 kts | 285° |
| 2026-05-07 18:20 | 34.68948 | 22.62565 | 38080 ft | 418 kts | 285° |
| 2026-05-07 18:20 | 34.70116 | 22.55674 | 38079 ft | 418 kts | 285° |
| 2026-05-07 18:21 | 34.71288 | 22.48733 | 38080 ft | 416 kts | 285° |
| 2026-05-07 18:21 | 34.72451 | 22.41826 | 38080 ft | 419 kts | 285° |
| 2026-05-07 18:22 | 34.73618 | 22.34864 | 38077 ft | 418 kts | 284° |
| 2026-05-07 18:22 | 34.74773 | 22.27953 | 38090 ft | 418 kts | 284° |
| 2026-05-07 18:23 | 34.75932 | 22.20986 | 38091 ft | 417 kts | 284° |
| 2026-05-07 18:23 | 34.77072 | 22.14111 | 38088 ft | 417 kts | 284° |
| 2026-05-07 18:24 | 34.78218 | 22.07177 | 38086 ft | 418 kts | 284° |
| 2026-05-07 18:24 | 34.79362 | 22.00232 | 38087 ft | 416 kts | 284° |
| 2026-05-07 18:25 | 34.80500 | 21.93296 | 38083 ft | 420 kts | 284° |
| 2026-05-07 18:25 | 34.81635 | 21.86345 | 38086 ft | 418 kts | 284° |
| 2026-05-07 18:26 | 34.82769 | 21.79379 | 38079 ft | 418 kts | 284° |
| 2026-05-07 18:26 | 34.83901 | 21.72400 | 38079 ft | 419 kts | 284° |
| 2026-05-07 18:27 | 34.85020 | 21.65469 | 38077 ft | 417 kts | 284° |
| 2026-05-07 18:27 | 34.86136 | 21.58542 | 38076 ft | 417 kts | 284° |
| 2026-05-07 18:28 | 34.87252 | 21.51578 | 38073 ft | 418 kts | 284° |
| 2026-05-07 18:28 | 34.88370 | 21.44575 | 38070 ft | 419 kts | 284° |
| 2026-05-07 18:29 | 34.89469 | 21.37667 | 38072 ft | 416 kts | 284° |
| 2026-05-07 18:29 | 34.90579 | 21.30673 | 38077 ft | 420 kts | 283° |
| 2026-05-07 18:30 | 34.91680 | 21.23691 | 38079 ft | 415 kts | 283° |
| 2026-05-07 18:30 | 34.92770 | 21.16767 | 38071 ft | 419 kts | 283° |
| 2026-05-07 18:31 | 34.93856 | 21.09830 | 38072 ft | 417 kts | 283° |
| 2026-05-07 18:31 | 34.94942 | 21.02866 | 38075 ft | 415 kts | 283° |
| 2026-05-07 18:32 | 34.96018 | 20.95951 | 38066 ft | 417 kts | 283° |
| 2026-05-07 18:32 | 34.97098 | 20.88975 | 38058 ft | 416 kts | 283° |
| 2026-05-07 18:33 | 34.98164 | 20.82062 | 38057 ft | 416 kts | 283° |
| 2026-05-07 18:33 | 34.99226 | 20.75146 | 38059 ft | 416 kts | 283° |
| 2026-05-07 18:34 | 35.00292 | 20.68180 | 38052 ft | 414 kts | 283° |
| 2026-05-07 18:34 | 35.01342 | 20.61286 | 38046 ft | 414 kts | 283° |
| 2026-05-07 18:35 | 35.02388 | 20.54398 | 38046 ft | 413 kts | 283° |
| 2026-05-07 18:35 | 35.03436 | 20.47467 | 38043 ft | 414 kts | 283° |
| 2026-05-07 18:36 | 35.04478 | 20.40543 | 38033 ft | 411 kts | 283° |
| 2026-05-07 18:36 | 35.05510 | 20.33668 | 38043 ft | 412 kts | 282° |
| 2026-05-07 18:37 | 35.06536 | 20.26796 | 38045 ft | 412 kts | 282° |
| 2026-05-07 18:37 | 35.07561 | 20.19908 | 38042 ft | 410 kts | 282° |
| 2026-05-07 18:38 | 35.08570 | 20.13094 | 38034 ft | 410 kts | 282° |
| 2026-05-07 18:38 | 35.09586 | 20.06209 | 38031 ft | 410 kts | 282° |
| 2026-05-07 18:39 | 35.10594 | 19.99351 | 38036 ft | 409 kts | 282° |
| 2026-05-07 18:39 | 35.11597 | 19.92498 | 38027 ft | 410 kts | 282° |
| 2026-05-07 18:40 | 35.12593 | 19.85668 | 38027 ft | 408 kts | 282° |
| 2026-05-07 18:40 | 35.13589 | 19.78805 | 38012 ft | 409 kts | 282° |
| 2026-05-07 18:41 | 35.14580 | 19.71954 | 38007 ft | 411 kts | 282° |
| 2026-05-07 18:41 | 35.15573 | 19.65053 | 38006 ft | 410 kts | 282° |
| 2026-05-07 18:42 | 35.16557 | 19.58197 | 38008 ft | 410 kts | 282° |
| 2026-05-07 18:42 | 35.17540 | 19.51307 | 38005 ft | 411 kts | 282° |
| 2026-05-07 18:43 | 35.18516 | 19.44443 | 38007 ft | 410 kts | 282° |
| 2026-05-07 18:43 | 35.19490 | 19.37565 | 38000 ft | 412 kts | 281° |
| 2026-05-07 18:44 | 35.20470 | 19.30612 | 38017 ft | 412 kts | 281° |
| 2026-05-07 18:44 | 35.21438 | 19.23718 | 38012 ft | 410 kts | 281° |
| 2026-05-07 18:45 | 35.22398 | 19.16845 | 38012 ft | 410 kts | 281° |
| 2026-05-07 18:45 | 35.23361 | 19.09930 | 38011 ft | 412 kts | 281° |
| 2026-05-07 18:46 | 35.24314 | 19.03051 | 38007 ft | 410 kts | 281° |
| 2026-05-07 18:46 | 35.25268 | 18.96136 | 38006 ft | 413 kts | 280° |
| 2026-05-07 18:47 | 35.26218 | 18.89218 | 38006 ft | 410 kts | 281° |
| 2026-05-07 18:47 | 35.27156 | 18.82366 | 37994 ft | 411 kts | 281° |
| 2026-05-07 18:48 | 35.28101 | 18.75422 | 37991 ft | 411 kts | 281° |
| 2026-05-07 18:48 | 35.29036 | 18.68523 | 37993 ft | 411 kts | 281° |
| 2026-05-07 18:49 | 35.29964 | 18.61651 | 37982 ft | 409 kts | 281° |
| 2026-05-07 18:49 | 35.30886 | 18.54787 | 37974 ft | 409 kts | 280° |
| 2026-05-07 18:50 | 35.31813 | 18.47864 | 37964 ft | 409 kts | 280° |
| 2026-05-07 18:50 | 35.32729 | 18.40985 | 37970 ft | 408 kts | 280° |
| 2026-05-07 18:51 | 35.33633 | 18.34161 | 37966 ft | 406 kts | 279° |
| 2026-05-07 18:51 | 35.34542 | 18.27283 | 37967 ft | 409 kts | 279° |
| 2026-05-07 18:52 | 35.35446 | 18.20399 | 37969 ft | 408 kts | 279° |
| 2026-05-07 18:52 | 35.36343 | 18.13540 | 37961 ft | 406 kts | 279° |
| 2026-05-07 18:53 | 35.37239 | 18.06661 | 37956 ft | 408 kts | 279° |
| 2026-05-07 18:53 | 35.38129 | 17.99792 | 37958 ft | 408 kts | 279° |
| 2026-05-07 18:54 | 35.39019 | 17.92895 | 37949 ft | 409 kts | 279° |
| 2026-05-07 18:54 | 35.39898 | 17.86050 | 37950 ft | 407 kts | 279° |
| 2026-05-07 18:55 | 35.40777 | 17.79172 | 37943 ft | 408 kts | 279° |
| 2026-05-07 18:55 | 35.41648 | 17.72333 | 37939 ft | 406 kts | 279° |
| 2026-05-07 18:56 | 35.42519 | 17.65450 | 37935 ft | 408 kts | 278° |
| 2026-05-07 18:56 | 35.43391 | 17.58536 | 37937 ft | 408 kts | 279° |
| 2026-05-07 18:57 | 35.44253 | 17.51657 | 37933 ft | 407 kts | 278° |
| 2026-05-07 18:57 | 35.45110 | 17.44803 | 37935 ft | 409 kts | 278° |
| 2026-05-07 18:58 | 35.45962 | 17.37944 | 37929 ft | 407 kts | 278° |
| 2026-05-07 18:58 | 35.46813 | 17.31059 | 37941 ft | 409 kts | 278° |
| 2026-05-07 18:59 | 35.47660 | 17.24176 | 37938 ft | 408 kts | 278° |
| 2026-05-07 18:59 | 35.48508 | 17.17253 | 37930 ft | 409 kts | 278° |
| 2026-05-07 19:00 | 35.49354 | 17.10311 | 37917 ft | 409 kts | 278° |
| 2026-05-07 19:00 | 35.50190 | 17.03422 | 37918 ft | 410 kts | 278° |
| 2026-05-07 19:01 | 35.51029 | 16.96470 | 37915 ft | 409 kts | 278° |
| 2026-05-07 19:01 | 35.51856 | 16.89584 | 37909 ft | 408 kts | 278° |
| 2026-05-07 19:02 | 35.52681 | 16.82685 | 37912 ft | 411 kts | 278° |
| 2026-05-07 19:02 | 35.53507 | 16.75733 | 37913 ft | 408 kts | 278° |
| 2026-05-07 19:03 | 35.54327 | 16.68802 | 37911 ft | 408 kts | 277° |
| 2026-05-07 19:03 | 35.55142 | 16.61877 | 37909 ft | 411 kts | 278° |
| 2026-05-07 19:04 | 35.55953 | 16.54958 | 37909 ft | 409 kts | 278° |
| 2026-05-07 19:04 | 35.56765 | 16.47989 | 37904 ft | 410 kts | 278° |
| 2026-05-07 19:05 | 35.57565 | 16.41084 | 37906 ft | 409 kts | 277° |
| 2026-05-07 19:05 | 35.58360 | 16.34195 | 37906 ft | 408 kts | 277° |
| 2026-05-07 19:06 | 35.59150 | 16.27310 | 37918 ft | 410 kts | 277° |
| 2026-05-07 19:06 | 35.60337 | 16.16898 | 37913 ft | 411 kts | 277° |
| 2026-05-07 19:07 | 35.61122 | 16.09968 | 37915 ft | 407 kts | 277° |
| 2026-05-07 19:07 | 35.61903 | 16.03034 | 37915 ft | 408 kts | 277° |
| 2026-05-07 19:08 | 35.62676 | 15.96137 | 37915 ft | 409 kts | 277° |
| 2026-05-07 19:08 | 35.63451 | 15.89183 | 37909 ft | 407 kts | 276° |
| 2026-05-07 19:09 | 35.64218 | 15.82270 | 37906 ft | 409 kts | 276° |
| 2026-05-07 19:09 | 35.64981 | 15.75343 | 37908 ft | 408 kts | 276° |
| 2026-05-07 19:10 | 35.65741 | 15.68419 | 37902 ft | 408 kts | 276° |
| 2026-05-07 19:10 | 35.66495 | 15.61508 | 37901 ft | 410 kts | 276° |
| 2026-05-07 19:11 | 35.67247 | 15.54578 | 37899 ft | 408 kts | 276° |
| 2026-05-07 19:11 | 35.67996 | 15.47634 | 37899 ft | 409 kts | 276° |
| 2026-05-07 19:12 | 35.68741 | 15.40699 | 37895 ft | 406 kts | 276° |
| 2026-05-07 19:12 | 35.69480 | 15.33770 | 37902 ft | 411 kts | 275° |
| 2026-05-07 19:13 | 35.70217 | 15.26825 | 37906 ft | 407 kts | 275° |
| 2026-05-07 19:13 | 35.70949 | 15.19894 | 37900 ft | 409 kts | 275° |
| 2026-05-07 19:14 | 35.71678 | 15.12945 | 37901 ft | 407 kts | 275° |
| 2026-05-07 19:14 | 35.72400 | 15.06028 | 37904 ft | 408 kts | 275° |
| 2026-05-07 19:15 | 35.73119 | 14.99092 | 37898 ft | 409 kts | 275° |
| 2026-05-07 19:15 | 35.73832 | 14.92192 | 37906 ft | 406 kts | 275° |
| 2026-05-07 19:16 | 35.74544 | 14.85239 | 37897 ft | 409 kts | 274° |
| 2026-05-07 19:16 | 35.75254 | 14.78289 | 37884 ft | 406 kts | 275° |
| 2026-05-07 19:17 | 35.75961 | 14.71311 | 37886 ft | 410 kts | 274° |
| 2026-05-07 19:17 | 35.76658 | 14.64395 | 37882 ft | 408 kts | 274° |
| 2026-05-07 19:18 | 35.77358 | 14.57410 | 37879 ft | 410 kts | 274° |
| 2026-05-07 19:18 | 35.78046 | 14.50507 | 37878 ft | 408 kts | 274° |
| 2026-05-07 19:19 | 35.78735 | 14.43548 | 37877 ft | 409 kts | 274° |
| 2026-05-07 19:19 | 35.79417 | 14.36616 | 37877 ft | 411 kts | 274° |
| 2026-05-07 19:20 | 35.80093 | 14.29708 | 37888 ft | 407 kts | 273° |
| 2026-05-07 19:20 | 35.80738 | 14.23074 | 37890 ft | 411 kts | 273° |
| 2026-05-07 19:21 | 35.81405 | 14.16182 | 37888 ft | 410 kts | 273° |
| 2026-05-07 19:21 | 35.82023 | 14.09749 | 37890 ft | 412 kts | 273° |
| 2026-05-07 19:22 | 35.82725 | 14.02400 | 37888 ft | 413 kts | 273° |
| 2026-05-07 19:22 | 35.83391 | 13.95386 | 37889 ft | 411 kts | 272° |
| 2026-05-07 19:23 | 35.84053 | 13.88368 | 37890 ft | 412 kts | 272° |
| 2026-05-07 19:23 | 35.84708 | 13.81377 | 37888 ft | 409 kts | 273° |
| 2026-05-07 19:24 | 35.85356 | 13.74425 | 37885 ft | 410 kts | 273° |
| 2026-05-07 19:24 | 35.85990 | 13.67569 | 37886 ft | 410 kts | 273° |
| 2026-05-07 19:25 | 35.86621 | 13.60709 | 37888 ft | 409 kts | 273° |
| 2026-05-07 19:25 | 35.87254 | 13.53777 | 37885 ft | 409 kts | 273° |
| 2026-05-07 19:26 | 35.87888 | 13.46796 | 37885 ft | 409 kts | 273° |
| 2026-05-07 19:26 | 35.88518 | 13.39809 | 37882 ft | 408 kts | 272° |
| 2026-05-07 19:27 | 35.89131 | 13.32973 | 37900 ft | 406 kts | 272° |
| 2026-05-07 19:27 | 35.89749 | 13.26021 | 37896 ft | 409 kts | 272° |
| 2026-05-07 19:28 | 35.90355 | 13.19175 | 37897 ft | 407 kts | 272° |
| 2026-05-07 19:28 | 35.90918 | 13.12773 | 37897 ft | 406 kts | 272° |
| 2026-05-07 19:29 | 35.91537 | 13.05681 | 37893 ft | 407 kts | 272° |
| 2026-05-07 19:29 | 35.92114 | 12.99029 | 37892 ft | 406 kts | 272° |
| 2026-05-07 19:30 | 35.92716 | 12.92043 | 37889 ft | 405 kts | 272° |
| 2026-05-07 19:30 | 35.93298 | 12.85239 | 37892 ft | 406 kts | 271° |
| 2026-05-07 19:31 | 35.93885 | 12.78332 | 37897 ft | 404 kts | 272° |
| 2026-05-07 19:31 | 35.94465 | 12.71462 | 37903 ft | 405 kts | 272° |
| 2026-05-07 19:32 | 35.95043 | 12.64559 | 37898 ft | 404 kts | 271° |
| 2026-05-07 19:32 | 35.95537 | 12.58633 | 37897 ft | 402 kts | 272° |
| 2026-05-07 19:33 | 35.96148 | 12.51246 | 37890 ft | 403 kts | 272° |
| 2026-05-07 19:33 | 35.96687 | 12.44682 | 37888 ft | 402 kts | 272° |
| 2026-05-07 19:34 | 35.97223 | 12.38110 | 37888 ft | 402 kts | 271° |
| 2026-05-07 19:34 | 35.97629 | 12.33090 | 37903 ft | 403 kts | 271° |
| 2026-05-07 19:35 | 35.98159 | 12.26519 | 37900 ft | 401 kts | 271° |
| 2026-05-07 19:35 | 35.98820 | 12.18247 | 37898 ft | 400 kts | 272° |
| 2026-05-07 19:36 | 35.99361 | 12.11432 | 37896 ft | 399 kts | 271° |
| 2026-05-07 19:36 | 35.99901 | 12.04570 | 37891 ft | 399 kts | 271° |
| 2026-05-07 19:37 | 36.00435 | 11.97742 | 37898 ft | 399 kts | 271° |
| 2026-05-07 19:37 | 36.00965 | 11.90909 | 37895 ft | 399 kts | 271° |
| 2026-05-07 19:38 | 36.01489 | 11.84105 | 37895 ft | 395 kts | 270° |
| 2026-05-07 19:38 | 36.02010 | 11.77285 | 37891 ft | 397 kts | 271° |
| 2026-05-07 19:39 | 36.02525 | 11.70496 | 37892 ft | 396 kts | 270° |
| 2026-05-07 19:39 | 36.03035 | 11.63708 | 37894 ft | 395 kts | 271° |
| 2026-05-07 19:40 | 36.03539 | 11.56981 | 37894 ft | 391 kts | 270° |
| 2026-05-07 19:40 | 36.04011 | 11.50209 | 37892 ft | 393 kts | 269° |
| 2026-05-07 19:41 | 36.04267 | 11.43496 | 37896 ft | 391 kts | 269° |
| 2026-05-07 19:41 | 36.04505 | 11.36774 | 37895 ft | 389 kts | 268° |
| 2026-05-07 19:42 | 36.04730 | 11.30257 | 37913 ft | 388 kts | 268° |
| 2026-05-07 19:42 | 36.04959 | 11.23587 | 37916 ft | 390 kts | 268° |
| 2026-05-07 19:43 | 36.05183 | 11.16935 | 37918 ft | 387 kts | 268° |
| 2026-05-07 19:43 | 36.05402 | 11.10273 | 37915 ft | 389 kts | 268° |
| 2026-05-07 19:44 | 36.05618 | 11.03623 | 37916 ft | 385 kts | 268° |
| 2026-05-07 19:44 | 36.05827 | 10.97039 | 37913 ft | 386 kts | 268° |
| 2026-05-07 19:45 | 36.06239 | 10.83761 | 37915 ft | 385 kts | 268° |
| 2026-05-07 19:46 | 36.06438 | 10.77155 | 37907 ft | 384 kts | 267° |
| 2026-05-07 19:46 | 36.06601 | 10.71627 | 37910 ft | 386 kts | 268° |
| 2026-05-07 19:47 | 36.06835 | 10.63592 | 37909 ft | 385 kts | 266° |
| 2026-05-07 19:47 | 36.07022 | 10.56991 | 37910 ft | 385 kts | 268° |
| 2026-05-07 19:48 | 36.07207 | 10.50396 | 37910 ft | 385 kts | 266° |
| 2026-05-07 19:48 | 36.07517 | 10.43777 | 37915 ft | 390 kts | 273° |
| 2026-05-07 19:49 | 36.09043 | 10.37286 | 37910 ft | 396 kts | 280° |
| 2026-05-07 19:49 | 36.10666 | 10.31249 | 37915 ft | 400 kts | 279° |
| 2026-05-07 19:50 | 36.12444 | 10.24616 | 37917 ft | 394 kts | 280° |
| 2026-05-07 19:50 | 36.14172 | 10.18129 | 37919 ft | 395 kts | 280° |
| 2026-05-07 19:51 | 36.15570 | 10.11613 | 37935 ft | 389 kts | 271° |
| 2026-05-07 19:51 | 36.16386 | 10.05032 | 37931 ft | 385 kts | 272° |
| 2026-05-07 19:52 | 36.17186 | 9.98508 | 37930 ft | 388 kts | 271° |
| 2026-05-07 19:52 | 36.17999 | 9.91847 | 37926 ft | 390 kts | 271° |
| 2026-05-07 19:53 | 36.18798 | 9.85282 | 37928 ft | 388 kts | 271° |
| 2026-05-07 19:53 | 36.19605 | 9.78613 | 37932 ft | 390 kts | 271° |
| 2026-05-07 19:54 | 36.20408 | 9.71965 | 37919 ft | 389 kts | 271° |
| 2026-05-07 19:54 | 36.21202 | 9.65333 | 37916 ft | 393 kts | 270° |
| 2026-05-07 19:55 | 36.22007 | 9.58606 | 37906 ft | 391 kts | 271° |
| 2026-05-07 19:55 | 36.22801 | 9.51905 | 37928 ft | 398 kts | 271° |
| 2026-05-07 19:56 | 36.23602 | 9.45149 | 37916 ft | 393 kts | 271° |
| 2026-05-07 19:56 | 36.24398 | 9.38374 | 37916 ft | 398 kts | 270° |
| 2026-05-07 19:57 | 36.25177 | 9.31725 | 37943 ft | 399 kts | 270° |
| 2026-05-07 19:57 | 36.26258 | 9.24964 | 37920 ft | 402 kts | 273° |
| 2026-05-07 19:58 | 36.28326 | 9.12599 | 37917 ft | 401 kts | 272° |
| 2026-05-07 19:59 | 36.29451 | 9.05735 | 37911 ft | 406 kts | 273° |
| 2026-05-07 19:59 | 36.30553 | 8.98984 | 37914 ft | 406 kts | 273° |
| 2026-05-07 20:00 | 36.31663 | 8.92148 | 37908 ft | 405 kts | 273° |
| 2026-05-07 20:00 | 36.32760 | 8.85354 | 37910 ft | 407 kts | 273° |
| 2026-05-07 20:01 | 36.33857 | 8.78538 | 37912 ft | 409 kts | 273° |
| 2026-05-07 20:01 | 36.34953 | 8.71701 | 37912 ft | 407 kts | 273° |
| 2026-05-07 20:02 | 36.36044 | 8.64863 | 37903 ft | 409 kts | 273° |
| 2026-05-07 20:02 | 36.37112 | 8.58142 | 37909 ft | 410 kts | 274° |
| 2026-05-07 20:03 | 36.38206 | 8.51235 | 37926 ft | 411 kts | 273° |
| 2026-05-07 20:03 | 36.39241 | 8.44676 | 37912 ft | 411 kts | 273° |
| 2026-05-07 20:04 | 36.40364 | 8.37416 | 37905 ft | 411 kts | 271° |
| 2026-05-07 20:04 | 36.40728 | 8.30604 | 37926 ft | 406 kts | 265° |
| 2026-05-07 20:05 | 36.40986 | 8.23625 | 37944 ft | 405 kts | 265° |
| 2026-05-07 20:05 | 36.41238 | 8.16642 | 37947 ft | 408 kts | 265° |
| 2026-05-07 20:06 | 36.41491 | 8.09571 | 37939 ft | 405 kts | 266° |
| 2026-05-07 20:06 | 36.41738 | 8.02569 | 37934 ft | 409 kts | 266° |
| 2026-05-07 20:07 | 36.42376 | 7.95629 | 37924 ft | 413 kts | 270° |
| 2026-05-07 20:07 | 36.43110 | 7.88503 | 37926 ft | 412 kts | 270° |
| 2026-05-07 20:08 | 36.43834 | 7.81453 | 37920 ft | 412 kts | 271° |
| 2026-05-07 20:08 | 36.44553 | 7.74389 | 37916 ft | 412 kts | 271° |
| 2026-05-07 20:09 | 36.45263 | 7.67384 | 37915 ft | 412 kts | 271° |
| 2026-05-07 20:10 | 36.46321 | 7.56855 | 37912 ft | 414 kts | 270° |
| 2026-05-07 20:10 | 36.47015 | 7.49911 | 37910 ft | 410 kts | 271° |
| 2026-05-07 20:11 | 36.47726 | 7.42720 | 37903 ft | 416 kts | 271° |
| 2026-05-07 20:11 | 36.48420 | 7.35691 | 37908 ft | 412 kts | 271° |
| 2026-05-07 20:12 | 36.49095 | 7.28795 | 37922 ft | 415 kts | 271° |
| 2026-05-07 20:12 | 36.49797 | 7.21584 | 37918 ft | 416 kts | 270° |
| 2026-05-07 20:13 | 36.50486 | 7.14459 | 37918 ft | 415 kts | 271° |
| 2026-05-07 20:13 | 36.51173 | 7.07315 | 37928 ft | 416 kts | 270° |
| 2026-05-07 20:14 | 36.51854 | 7.00182 | 37924 ft | 416 kts | 271° |
| 2026-05-07 20:14 | 36.52533 | 6.93042 | 37927 ft | 413 kts | 271° |
| 2026-05-07 20:15 | 36.53198 | 6.85983 | 37929 ft | 414 kts | 271° |
| 2026-05-07 20:15 | 36.53867 | 6.78841 | 37924 ft | 416 kts | 271° |
| 2026-05-07 20:16 | 36.54532 | 6.71707 | 37919 ft | 412 kts | 271° |
| 2026-05-07 20:16 | 36.55189 | 6.64590 | 37917 ft | 416 kts | 271° |
| 2026-05-07 20:17 | 36.55841 | 6.57499 | 37914 ft | 412 kts | 271° |
| 2026-05-07 20:17 | 36.56487 | 6.50418 | 37914 ft | 414 kts | 271° |
| 2026-05-07 20:18 | 36.57123 | 6.43412 | 37910 ft | 413 kts | 271° |
| 2026-05-07 20:18 | 36.57755 | 6.36387 | 37907 ft | 416 kts | 271° |
| 2026-05-07 20:19 | 36.58174 | 6.31714 | 37917 ft | 413 kts | 271° |
| 2026-05-07 20:19 | 36.59002 | 6.22404 | 37918 ft | 415 kts | 271° |
| 2026-05-07 20:20 | 36.59620 | 6.15412 | 37924 ft | 411 kts | 270° |
| 2026-05-07 20:20 | 36.60242 | 6.08291 | 37912 ft | 417 kts | 270° |
| 2026-05-07 20:21 | 36.60863 | 6.01174 | 37911 ft | 412 kts | 271° |
| 2026-05-07 20:21 | 36.61473 | 5.94122 | 37908 ft | 413 kts | 271° |
| 2026-05-07 20:22 | 36.62078 | 5.87066 | 37911 ft | 414 kts | 271° |
| 2026-05-07 20:22 | 36.62687 | 5.79923 | 37914 ft | 414 kts | 271° |
| 2026-05-07 20:23 | 36.63288 | 5.72823 | 37908 ft | 413 kts | 271° |
| 2026-05-07 20:23 | 36.63585 | 5.69310 | 37472 ft | 406 kts | 271° |
| 2026-05-07 20:23 | 36.63878 | 5.65820 | 36684 ft | 406 kts | 272° |
| 2026-05-07 20:23 | 36.64166 | 5.62370 | 35866 ft | 407 kts | 272° |
| 2026-05-07 20:24 | 36.64458 | 5.58859 | 35051 ft | 408 kts | 273° |
| 2026-05-07 20:24 | 36.64751 | 5.55325 | 34276 ft | 408 kts | 274° |
| 2026-05-07 20:24 | 36.65042 | 5.51776 | 33523 ft | 426 kts | 274° |
| 2026-05-07 20:24 | 36.65348 | 5.48046 | 32701 ft | 436 kts | 275° |
| 2026-05-07 20:25 | 36.65655 | 5.44304 | 31832 ft | 437 kts | 275° |
| 2026-05-07 20:25 | 36.65962 | 5.40547 | 30957 ft | 435 kts | 275° |
| 2026-05-07 20:25 | 36.66264 | 5.36836 | 30380 ft | 428 kts | 275° |
| 2026-05-07 20:25 | 36.66469 | 5.34314 | 30077 ft | 422 kts | 274° |
| 2026-05-07 20:26 | 36.66717 | 5.31255 | 29675 ft | 416 kts | 274° |
| 2026-05-07 20:26 | 36.67336 | 5.23573 | 28578 ft | 402 kts | 275° |
| 2026-05-07 20:26 | 36.67614 | 5.20092 | 28085 ft | 396 kts | 275° |
| 2026-05-07 20:27 | 36.67884 | 5.16711 | 27599 ft | 394 kts | 275° |
| 2026-05-07 20:27 | 36.68156 | 5.13279 | 27087 ft | 407 kts | 275° |
| 2026-05-07 20:27 | 36.68435 | 5.09750 | 26552 ft | 405 kts | 275° |
| 2026-05-07 20:27 | 36.68705 | 5.06321 | 26040 ft | 401 kts | 275° |
| 2026-05-07 20:28 | 36.68979 | 5.02848 | 25518 ft | 396 kts | 274° |
| 2026-05-07 20:28 | 36.69245 | 4.99443 | 25003 ft | 392 kts | 274° |
| 2026-05-07 20:28 | 36.69508 | 4.96065 | 24482 ft | 391 kts | 275° |
| 2026-05-07 20:28 | 36.69768 | 4.92716 | 23961 ft | 390 kts | 274° |
| 2026-05-07 20:29 | 36.70031 | 4.89324 | 23431 ft | 387 kts | 274° |
| 2026-05-07 20:29 | 36.70287 | 4.86008 | 22917 ft | 384 kts | 274° |
| 2026-05-07 20:29 | 36.70543 | 4.82676 | 22389 ft | 381 kts | 274° |
| 2026-05-07 20:29 | 36.70796 | 4.79375 | 21861 ft | 380 kts | 274° |
| 2026-05-07 20:30 | 36.71046 | 4.76094 | 21333 ft | 379 kts | 274° |
| 2026-05-07 20:30 | 36.71293 | 4.72843 | 20812 ft | 376 kts | 274° |
| 2026-05-07 20:30 | 36.71542 | 4.69569 | 20261 ft | 373 kts | 273° |
| 2026-05-07 20:30 | 36.71785 | 4.66342 | 19745 ft | 371 kts | 273° |
| 2026-05-07 20:31 | 36.72029 | 4.63097 | 19198 ft | 370 kts | 273° |
| 2026-05-07 20:31 | 36.72266 | 4.59931 | 18663 ft | 368 kts | 273° |
| 2026-05-07 20:31 | 36.72505 | 4.56732 | 18134 ft | 366 kts | 273° |
| 2026-05-07 20:31 | 36.72741 | 4.53562 | 17596 ft | 366 kts | 272° |
| 2026-05-07 20:32 | 36.72975 | 4.50391 | 17046 ft | 365 kts | 273° |
| 2026-05-07 20:32 | 36.73208 | 4.47247 | 16498 ft | 361 kts | 273° |
| 2026-05-07 20:32 | 36.73438 | 4.44121 | 15968 ft | 357 kts | 273° |
| 2026-05-07 20:32 | 36.73665 | 4.41021 | 15442 ft | 356 kts | 273° |
| 2026-05-07 20:33 | 36.73887 | 4.37978 | 14917 ft | 355 kts | 273° |
| 2026-05-07 20:33 | 36.74110 | 4.34915 | 14350 ft | 353 kts | 272° |
| 2026-05-07 20:33 | 36.74324 | 4.31968 | 13860 ft | 350 kts | 273° |
| 2026-05-07 20:33 | 36.74542 | 4.28936 | 13331 ft | 352 kts | 273° |
| 2026-05-07 20:34 | 36.74761 | 4.25891 | 12770 ft | 349 kts | 273° |
| 2026-05-07 20:34 | 36.74977 | 4.22868 | 12220 ft | 345 kts | 273° |
| 2026-05-07 20:34 | 36.75191 | 4.19882 | 11701 ft | 341 kts | 273° |
| 2026-05-07 20:34 | 36.75400 | 4.16941 | 11152 ft | 338 kts | 274° |
| 2026-05-07 20:35 | 36.75606 | 4.14044 | 10783 ft | 330 kts | 273° |
| 2026-05-07 20:35 | 36.75804 | 4.11255 | 10730 ft | 313 kts | 273° |
| 2026-05-07 20:35 | 36.75991 | 4.08626 | 10654 ft | 295 kts | 274° |
| 2026-05-07 20:35 | 36.76167 | 4.06126 | 10547 ft | 281 kts | 274° |
| 2026-05-07 20:36 | 36.76337 | 4.03714 | 10411 ft | 271 kts | 274° |
| 2026-05-07 20:36 | 36.76498 | 4.01417 | 10284 ft | 262 kts | 274° |
| 2026-05-07 20:36 | 36.76654 | 3.99166 | 10170 ft | 252 kts | 274° |
| 2026-05-07 20:36 | 36.76803 | 3.97032 | 10059 ft | 244 kts | 274° |
| 2026-05-07 20:37 | 36.76953 | 3.94852 | 9892 ft | 257 kts | 274° |
| 2026-05-07 20:37 | 36.77107 | 3.92619 | 9555 ft | 258 kts | 274° |
| 2026-05-07 20:37 | 36.77260 | 3.90395 | 9242 ft | 257 kts | 274° |
| 2026-05-07 20:37 | 36.77412 | 3.88178 | 8950 ft | 256 kts | 274° |
| 2026-05-07 20:38 | 36.77563 | 3.85966 | 8645 ft | 254 kts | 274° |
| 2026-05-07 20:38 | 36.77714 | 3.83755 | 8366 ft | 252 kts | 274° |
| 2026-05-07 20:38 | 36.77862 | 3.81573 | 8088 ft | 251 kts | 274° |
| 2026-05-07 20:38 | 36.78009 | 3.79415 | 7820 ft | 250 kts | 274° |
| 2026-05-07 20:39 | 36.78156 | 3.77230 | 7536 ft | 249 kts | 274° |
| 2026-05-07 20:39 | 36.78302 | 3.75078 | 7250 ft | 248 kts | 274° |
| 2026-05-07 20:39 | 36.78446 | 3.72929 | 6971 ft | 247 kts | 274° |
| 2026-05-07 20:39 | 36.78590 | 3.70784 | 6712 ft | 245 kts | 274° |
| 2026-05-07 20:40 | 36.78733 | 3.68651 | 6428 ft | 245 kts | 275° |
| 2026-05-07 20:40 | 36.78872 | 3.66555 | 6142 ft | 244 kts | 275° |
| 2026-05-07 20:40 | 36.79014 | 3.64432 | 5884 ft | 242 kts | 275° |
| 2026-05-07 20:40 | 36.79153 | 3.62341 | 5613 ft | 241 kts | 275° |
| 2026-05-07 20:41 | 36.79292 | 3.60241 | 5358 ft | 240 kts | 275° |
| 2026-05-07 20:41 | 36.79316 | 3.58153 | 5089 ft | 240 kts | 261° |
| 2026-05-07 20:41 | 36.78675 | 3.56207 | 4829 ft | 240 kts | 238° |
| 2026-05-07 20:41 | 36.77652 | 3.54525 | 4683 ft | 248 kts | 233° |
| 2026-05-07 20:42 | 36.76540 | 3.52888 | 4477 ft | 238 kts | 231° |
| 2026-05-07 20:42 | 36.75471 | 3.51366 | 4388 ft | 229 kts | 231° |
| 2026-05-07 20:42 | 36.74425 | 3.49882 | 4191 ft | 220 kts | 231° |
| 2026-05-07 20:42 | 36.73444 | 3.48491 | 3996 ft | 210 kts | 232° |
| 2026-05-07 20:43 | 36.72498 | 3.47153 | 3848 ft | 196 kts | 232° |
| 2026-05-07 20:43 | 36.71624 | 3.45914 | 3706 ft | 183 kts | 232° |
| 2026-05-07 20:43 | 36.70806 | 3.44756 | 3597 ft | 171 kts | 232° |
| 2026-05-07 20:43 | 36.70034 | 3.43663 | 3466 ft | 165 kts | 233° |
| 2026-05-07 20:44 | 36.69295 | 3.42585 | 3334 ft | 157 kts | 239° |
| 2026-05-07 20:44 | 36.68822 | 3.41425 | 3209 ft | 140 kts | 256° |
| 2026-05-07 20:44 | 36.68625 | 3.40255 | 3080 ft | 137 kts | 269° |
| 2026-05-07 20:44 | 36.68644 | 3.39088 | 2912 ft | 133 kts | 274° |
| 2026-05-07 20:45 | 36.68683 | 3.37944 | 2738 ft | 131 kts | 274° |
| 2026-05-07 20:45 | 36.68715 | 3.36813 | 2566 ft | 132 kts | 274° |
| 2026-05-07 20:45 | 36.68745 | 3.35659 | 2392 ft | 131 kts | 274° |
| 2026-05-07 20:45 | 36.68774 | 3.34575 | 2228 ft | 134 kts | 273° |
| 2026-05-07 20:46 | 36.68803 | 3.33422 | 2047 ft | 132 kts | 273° |
| 2026-05-07 20:46 | 36.68834 | 3.32260 | 1868 ft | 133 kts | 273° |
| 2026-05-07 20:46 | 36.68862 | 3.31114 | 1695 ft | 132 kts | 273° |
| 2026-05-07 20:46 | 36.68891 | 3.29956 | 1510 ft | 132 kts | 273° |
| 2026-05-07 20:47 | 36.68919 | 3.28818 | 1331 ft | 131 kts | 273° |
| 2026-05-07 20:47 | 36.68960 | 3.27676 | 1120 ft | 133 kts | 273° |
| 2026-05-07 20:47 | 36.68991 | 3.26531 | 888 ft | 131 kts | 272° |
| 2026-05-07 20:47 | 36.69012 | 3.25399 | 752 ft | 133 kts | 271° |
| 2026-05-07 20:48 | 36.69034 | 3.24239 | 601 ft | 133 kts | 272° |
| 2026-05-07 20:48 | 36.69070 | 3.23095 | 458 ft | 133 kts | 271° |
| 2026-05-07 20:48 | 36.69098 | 3.21922 | 259 ft | 135 kts | 271° |
| 2026-05-07 20:48 | 36.69126 | 3.20770 | 91 ft | 130 kts | 271° |
| 2026-05-07 20:49 | 36.69149 | 3.19757 | 73 ft | 100 kts | 271° |
| 2026-05-07 20:49 | 36.69167 | 3.19038 | 72 ft | 65 kts | 272° |
| 2026-05-07 20:49 | 36.69177 | 3.18617 | 70 ft | 34 kts | 271° |
| 2026-05-07 20:49 | 36.69245 | 3.18424 | 62 ft | 26 kts | 351° |
| 2026-05-07 20:50 | 36.69339 | 3.18525 | 63 ft | 18 kts | 90° |
| 2026-05-07 20:50 | 36.69334 | 3.18678 | 69 ft | 17 kts | 91° |
| 2026-05-07 20:50 | 36.69331 | 3.18837 | 72 ft | 19 kts | 91° |
| 2026-05-07 20:50 | 36.69327 | 3.19016 | 74 ft | 23 kts | 91° |
| 2026-05-07 20:51 | 36.69320 | 3.19248 | 74 ft | 28 kts | 92° |
| 2026-05-07 20:51 | 36.69313 | 3.19516 | 71 ft | 34 kts | 92° |
| 2026-05-07 20:51 | 36.69307 | 3.19790 | 70 ft | 26 kts | 91° |
| 2026-05-07 20:51 | 36.69348 | 3.19888 | 69 ft | 11 kts | 16° |
| 2026-05-07 20:52 | 36.69424 | 3.19897 | 66 ft | 5 kts | 5° |
| 2026-05-07 20:52 | 36.69448 | 3.19924 | 66 ft | 3 kts | 88° |
| 2026-05-07 20:52 | 36.69450 | 3.19984 | 66 ft | 10 kts | 86° |
| 2026-05-07 20:52 | 36.69452 | 3.20094 | 67 ft | 13 kts | 91° |
| 2026-05-07 20:53 | 36.69449 | 3.20226 | 68 ft | 4 kts | 91° |
| 2026-05-07 20:53 | 36.69449 | 3.20227 | 68 ft | 0 kts | 91° |
| 2026-05-07 20:54 | 36.69448 | 3.20239 | 69 ft | 0 kts | 91° |
| 2026-05-07 20:54 | 36.69447 | 3.20268 | 69 ft | 8 kts | 92° |
| 2026-05-07 20:55 | 36.69497 | 3.20359 | 68 ft | 19 kts | 7° |
| 2026-05-07 20:55 | 36.69587 | 3.20384 | 67 ft | 5 kts | 43° |
| 2026-05-07 20:55 | 36.69595 | 3.20394 | 67 ft | 2 kts | 47° |
| 2026-05-07 20:55 | 36.69626 | 3.20405 | 68 ft | 7 kts | 10° |
| 2026-05-07 20:56 | 36.69668 | 3.20433 | 69 ft | 6 kts | 47° |
| 2026-05-07 20:56 | 36.69682 | 3.20456 | 71 ft | 2 kts | 52° |
| 2026-05-07 20:56 | 36.69698 | 3.20481 | 73 ft | 2 kts | 52° |
| 2026-05-07 20:56 | 36.69704 | 3.20491 | 73 ft | 0 kts | 52° |